sensor_id;sensor_type;location;lat;lon;timestamp;pressure;altitude;pressure_sealevel;temperature;humidity
70555;BME280;58104;52.744;15.242;2023-01-13T00:01:24;99802.03;;;18.74;43.89
70555;BME280;58104;52.744;15.242;2023-01-13T00:03:48;99802.91;;;18.79;43.94
70555;BME280;58104;52.744;15.242;2023-01-13T00:06:15;99798.47;;;18.76;44.08
70555;BME280;58104;52.744;15.242;2023-01-13T00:08:38;99800.01;;;18.73;44.29
70555;BME280;58104;52.744;15.242;2023-01-13T00:11:04;99794.50;;;18.68;44.46
70555;BME280;58104;52.744;15.242;2023-01-13T00:13:29;99794.40;;;18.71;44.55
70555;BME280;58104;52.744;15.242;2023-01-13T00:15:55;99797.22;;;18.81;44.55
70555;BME280;58104;52.744;15.242;2023-01-13T00:18:20;99795.67;;;18.77;44.56
70555;BME280;58104;52.744;15.242;2023-01-13T00:20:45;99785.14;;;18.76;44.73
70555;BME280;58104;52.744;15.242;2023-01-13T00:23:11;99781.07;;;18.66;44.93
70555;BME280;58104;52.744;15.242;2023-01-13T00:25:36;99782.37;;;18.74;44.82
70555;BME280;58104;52.744;15.242;2023-01-13T00:28:02;99791.10;;;18.70;44.97
70555;BME280;58104;52.744;15.242;2023-01-13T00:30:27;99777.56;;;18.84;44.76
70555;BME280;58104;52.744;15.242;2023-01-13T00:32:52;99773.84;;;18.76;44.86
70555;BME280;58104;52.744;15.242;2023-01-13T00:35:18;99776.47;;;18.85;44.79
70555;BME280;58104;52.744;15.242;2023-01-13T00:37:43;99778.57;;;18.84;44.89
70555;BME280;58104;52.744;15.242;2023-01-13T00:40:10;99774.29;;;18.86;44.85
70555;BME280;58104;52.744;15.242;2023-01-13T00:42:34;99773.19;;;18.67;45.25
70555;BME280;58104;52.744;15.242;2023-01-13T00:44:59;99767.44;;;18.81;45.21
70555;BME280;58104;52.744;15.242;2023-01-13T00:47:25;99773.68;;;18.72;45.37
70555;BME280;58104;52.744;15.242;2023-01-13T00:49:50;99772.05;;;18.74;45.46
70555;BME280;58104;52.744;15.242;2023-01-13T00:54:41;99757.34;;;18.84;45.40
70555;BME280;58104;52.744;15.242;2023-01-13T00:57:07;99758.01;;;18.85;45.49
70555;BME280;58104;52.744;15.242;2023-01-13T00:59:32;99756.30;;;18.89;45.44
70555;BME280;58104;52.744;15.242;2023-01-13T01:01:58;99756.46;;;18.81;45.65
70555;BME280;58104;52.744;15.242;2023-01-13T01:04:22;99760.23;;;18.99;45.64
70555;BME280;58104;52.744;15.242;2023-01-13T01:06:48;99758.87;;;18.89;45.85
70555;BME280;58104;52.744;15.242;2023-01-13T01:09:14;99756.92;;;18.89;45.92
70555;BME280;58104;52.744;15.242;2023-01-13T01:11:39;99754.36;;;18.87;46.11
70555;BME280;58104;52.744;15.242;2023-01-13T01:14:04;99757.24;;;18.90;46.07
70555;BME280;58104;52.744;15.242;2023-01-13T01:16:31;99750.87;;;18.81;46.02
70555;BME280;58104;52.744;15.242;2023-01-13T01:18:56;99753.37;;;18.84;46.14
70555;BME280;58104;52.744;15.242;2023-01-13T01:21:22;99767.93;;;18.91;46.05
70555;BME280;58104;52.744;15.242;2023-01-13T01:23:46;99758.71;;;19.09;46.05
70555;BME280;58104;52.744;15.242;2023-01-13T01:26:13;99748.61;;;19.06;46.06
70555;BME280;58104;52.744;15.242;2023-01-13T01:28:37;99745.92;;;18.99;46.10
70555;BME280;58104;52.744;15.242;2023-01-13T01:31:05;99749.90;;;18.94;46.24
70555;BME280;58104;52.744;15.242;2023-01-13T01:33:27;99751.98;;;18.97;46.24
70555;BME280;58104;52.744;15.242;2023-01-13T01:35:53;99755.62;;;19.07;46.16
70555;BME280;58104;52.744;15.242;2023-01-13T01:38:18;99752.86;;;19.02;46.38
70555;BME280;58104;52.744;15.242;2023-01-13T01:40:43;99759.19;;;19.08;46.58
70555;BME280;58104;52.744;15.242;2023-01-13T01:43:13;99751.40;;;18.96;46.61
70555;BME280;58104;52.744;15.242;2023-01-13T01:45:34;99759.57;;;19.02;46.85
70555;BME280;58104;52.744;15.242;2023-01-13T01:48:02;99753.21;;;18.96;46.95
70555;BME280;58104;52.744;15.242;2023-01-13T01:50:26;99749.95;;;18.96;47.18
70555;BME280;58104;52.744;15.242;2023-01-13T01:52:54;99751.90;;;19.06;47.27
70555;BME280;58104;52.744;15.242;2023-01-13T01:55:18;99752.91;;;19.03;47.27
70555;BME280;58104;52.744;15.242;2023-01-13T01:57:44;99755.02;;;18.91;47.45
70555;BME280;58104;52.744;15.242;2023-01-13T02:02:32;99749.97;;;18.92;47.50
70555;BME280;58104;52.744;15.242;2023-01-13T02:04:58;99744.99;;;18.93;47.50
70555;BME280;58104;52.744;15.242;2023-01-13T02:07:26;99743.40;;;18.98;47.63
70555;BME280;58104;52.744;15.242;2023-01-13T02:09:48;99742.38;;;18.84;47.84
70555;BME280;58104;52.744;15.242;2023-01-13T02:12:14;99740.41;;;18.96;47.68
70555;BME280;58104;52.744;15.242;2023-01-13T02:14:40;99740.77;;;18.86;47.78
70555;BME280;58104;52.744;15.242;2023-01-13T02:17:17;99734.09;;;18.93;47.58
70555;BME280;58104;52.744;15.242;2023-01-13T02:22:09;99730.06;;;18.98;47.86
70555;BME280;58104;52.744;15.242;2023-01-13T02:24:32;99732.49;;;18.93;47.78
70555;BME280;58104;52.744;15.242;2023-01-13T02:31:39;99738.36;;;18.86;48.43
70555;BME280;58104;52.744;15.242;2023-01-13T02:34:06;99735.95;;;18.95;48.60
70555;BME280;58104;52.744;15.242;2023-01-13T02:38:56;99735.56;;;19.11;48.57
70555;BME280;58104;52.744;15.242;2023-01-13T02:41:25;99728.45;;;19.11;48.70
70555;BME280;58104;52.744;15.242;2023-01-13T02:43:44;99725.71;;;18.98;49.00
70555;BME280;58104;52.744;15.242;2023-01-13T02:46:12;99728.37;;;19.00;48.96
70555;BME280;58104;52.744;15.242;2023-01-13T02:48:37;99723.60;;;19.04;49.18
70555;BME280;58104;52.744;15.242;2023-01-13T02:51:04;99722.32;;;19.08;49.21
70555;BME280;58104;52.744;15.242;2023-01-13T02:53:28;99730.13;;;18.98;49.45
70555;BME280;58104;52.744;15.242;2023-01-13T02:55:53;99726.52;;;19.15;49.41
70555;BME280;58104;52.744;15.242;2023-01-13T02:58:20;99731.38;;;19.04;49.47
70555;BME280;58104;52.744;15.242;2023-01-13T03:00:42;99724.65;;;19.00;49.61
70555;BME280;58104;52.744;15.242;2023-01-13T03:03:07;99728.37;;;19.02;49.56
70555;BME280;58104;52.744;15.242;2023-01-13T03:05:33;99731.66;;;18.96;49.74
70555;BME280;58104;52.744;15.242;2023-01-13T03:08:08;99733.38;;;18.97;49.81
70555;BME280;58104;52.744;15.242;2023-01-13T03:10:33;99734.52;;;19.10;49.55
70555;BME280;58104;52.744;15.242;2023-01-13T03:12:56;99730.71;;;19.07;49.79
70555;BME280;58104;52.744;15.242;2023-01-13T03:15:18;99729.53;;;19.11;49.69
70555;BME280;58104;52.744;15.242;2023-01-13T03:17:43;99728.70;;;18.97;49.71
70555;BME280;58104;52.744;15.242;2023-01-13T03:22:34;99728.39;;;18.96;49.69
70555;BME280;58104;52.744;15.242;2023-01-13T03:24:59;99722.12;;;19.02;49.59
70555;BME280;58104;52.744;15.242;2023-01-13T03:27:25;99718.60;;;19.08;49.80
70555;BME280;58104;52.744;15.242;2023-01-13T03:29:50;99724.40;;;19.03;49.60
70555;BME280;58104;52.744;15.242;2023-01-13T03:34:41;99715.36;;;18.95;49.83
70555;BME280;58104;52.744;15.242;2023-01-13T03:37:04;99720.88;;;18.99;49.84
70555;BME280;58104;52.744;15.242;2023-01-13T03:39:30;99714.98;;;19.03;49.90
70555;BME280;58104;52.744;15.242;2023-01-13T03:41:56;99719.73;;;19.03;49.71
70555;BME280;58104;52.744;15.242;2023-01-13T03:44:23;99720.93;;;19.01;49.54
70555;BME280;58104;52.744;15.242;2023-01-13T03:46:50;99725.43;;;19.03;49.47
70555;BME280;58104;52.744;15.242;2023-01-13T03:49:13;99721.69;;;19.00;49.54
70555;BME280;58104;52.744;15.242;2023-01-13T03:51:38;99727.36;;;19.07;49.44
70555;BME280;58104;52.744;15.242;2023-01-13T03:54:04;99727.53;;;18.95;49.48
70555;BME280;58104;52.744;15.242;2023-01-13T03:56:29;99726.14;;;19.00;49.37
70555;BME280;58104;52.744;15.242;2023-01-13T03:58:52;99726.78;;;19.11;49.14
70555;BME280;58104;52.744;15.242;2023-01-13T04:01:20;99727.29;;;19.09;49.15
70555;BME280;58104;52.744;15.242;2023-01-13T04:03:48;99726.30;;;19.03;49.28
70555;BME280;58104;52.744;15.242;2023-01-13T04:06:15;99722.30;;;19.04;49.23
70555;BME280;58104;52.744;15.242;2023-01-13T04:08:34;99724.76;;;19.12;49.29
70555;BME280;58104;52.744;15.242;2023-01-13T04:11:02;99727.88;;;19.17;49.33
70555;BME280;58104;52.744;15.242;2023-01-13T04:13:26;99729.34;;;19.18;49.33
70555;BME280;58104;52.744;15.242;2023-01-13T04:15:49;99730.53;;;19.11;49.49
70555;BME280;58104;52.744;15.242;2023-01-13T04:18:17;99731.93;;;19.10;49.51
70555;BME280;58104;52.744;15.242;2023-01-13T04:20:41;99723.27;;;19.10;49.53
70555;BME280;58104;52.744;15.242;2023-01-13T04:23:05;99721.52;;;19.06;49.53
70555;BME280;58104;52.744;15.242;2023-01-13T04:25:31;99723.21;;;19.15;49.65
70555;BME280;58104;52.744;15.242;2023-01-13T04:27:56;99716.68;;;19.11;49.65
70555;BME280;58104;52.744;15.242;2023-01-13T04:30:22;99711.72;;;19.02;49.74
70555;BME280;58104;52.744;15.242;2023-01-13T04:32:47;99719.90;;;19.12;49.67
70555;BME280;58104;52.744;15.242;2023-01-13T04:37:38;99713.11;;;19.04;49.84
70555;BME280;58104;52.744;15.242;2023-01-13T04:40:04;99711.39;;;19.12;49.67
70555;BME280;58104;52.744;15.242;2023-01-13T04:42:28;99715.98;;;19.21;49.63
70555;BME280;58104;52.744;15.242;2023-01-13T04:44:54;99718.08;;;19.10;49.73
70555;BME280;58104;52.744;15.242;2023-01-13T04:47:19;99711.57;;;19.06;49.65
70555;BME280;58104;52.744;15.242;2023-01-13T04:49:45;99705.24;;;19.08;49.88
70555;BME280;58104;52.744;15.242;2023-01-13T04:52:10;99715.34;;;19.13;49.86
70555;BME280;58104;52.744;15.242;2023-01-13T04:54:36;99709.78;;;19.13;49.79
70555;BME280;58104;52.744;15.242;2023-01-13T04:57:01;99709.47;;;19.14;49.93
70555;BME280;58104;52.744;15.242;2023-01-13T04:59:26;99714.58;;;19.02;49.99
70555;BME280;58104;52.744;15.242;2023-01-13T05:01:52;99717.97;;;19.05;49.86
70555;BME280;58104;52.744;15.242;2023-01-13T05:04:17;99722.54;;;19.09;49.77
70555;BME280;58104;52.744;15.242;2023-01-13T05:06:42;99720.81;;;19.02;49.85
70555;BME280;58104;52.744;15.242;2023-01-13T05:09:09;99732.83;;;19.06;49.71
70555;BME280;58104;52.744;15.242;2023-01-13T05:11:33;99728.41;;;19.13;49.66
70555;BME280;58104;52.744;15.242;2023-01-13T05:13:59;99731.75;;;19.21;49.73
70555;BME280;58104;52.744;15.242;2023-01-13T05:16:24;99730.71;;;19.18;49.76
70555;BME280;58104;52.744;15.242;2023-01-13T05:18:49;99734.65;;;19.15;50.03
70555;BME280;58104;52.744;15.242;2023-01-13T05:21:15;99724.28;;;19.07;49.79
70555;BME280;58104;52.744;15.242;2023-01-13T05:23:40;99718.80;;;19.24;49.63
70555;BME280;58104;52.744;15.242;2023-01-13T05:26:06;99723.68;;;19.11;49.63
70555;BME280;58104;52.744;15.242;2023-01-13T05:28:32;99719.75;;;19.11;49.52
70555;BME280;58104;52.744;15.242;2023-01-13T05:30:56;99718.49;;;19.13;49.60
70555;BME280;58104;52.744;15.242;2023-01-13T05:33:22;99716.06;;;19.12;49.53
70555;BME280;58104;52.744;15.242;2023-01-13T05:35:48;99725.93;;;19.22;49.53
70555;BME280;58104;52.744;15.242;2023-01-13T05:38:13;99716.40;;;19.20;49.57
70555;BME280;58104;52.744;15.242;2023-01-13T05:40:39;99708.49;;;19.09;49.69
70555;BME280;58104;52.744;15.242;2023-01-13T05:43:06;99708.59;;;19.06;49.99
70555;BME280;58104;52.744;15.242;2023-01-13T05:45:29;99712.76;;;19.06;50.14
70555;BME280;58104;52.744;15.242;2023-01-13T05:47:55;99729.08;;;19.18;50.03
70555;BME280;58104;52.744;15.242;2023-01-13T05:50:20;99730.23;;;19.10;50.03
70555;BME280;58104;52.744;15.242;2023-01-13T05:52:45;99732.99;;;19.09;50.03
70555;BME280;58104;52.744;15.242;2023-01-13T05:55:11;99729.94;;;19.13;50.17
70555;BME280;58104;52.744;15.242;2023-01-13T05:57:36;99737.46;;;19.03;50.41
70555;BME280;58104;52.744;15.242;2023-01-13T06:00:02;99726.49;;;19.12;50.40
70555;BME280;58104;52.744;15.242;2023-01-13T06:02:27;99722.91;;;19.04;50.37
70555;BME280;58104;52.744;15.242;2023-01-13T06:04:52;99725.82;;;19.04;50.51
70555;BME280;58104;52.744;15.242;2023-01-13T06:07:17;99724.71;;;19.22;50.41
70555;BME280;58104;52.744;15.242;2023-01-13T06:09:43;99727.44;;;19.02;50.53
70555;BME280;58104;52.744;15.242;2023-01-13T06:12:10;99724.33;;;19.07;50.73
70555;BME280;58104;52.744;15.242;2023-01-13T06:14:34;99724.93;;;19.07;50.66
70555;BME280;58104;52.744;15.242;2023-01-13T06:16:59;99729.83;;;19.12;50.50
70555;BME280;58104;52.744;15.242;2023-01-13T06:19:24;99735.27;;;19.39;50.87
70555;BME280;58104;52.744;15.242;2023-01-13T06:21:50;99733.37;;;19.34;51.06
70555;BME280;58104;52.744;15.242;2023-01-13T06:24:15;99741.41;;;19.33;51.13
70555;BME280;58104;52.744;15.242;2023-01-13T06:26:41;99740.47;;;19.48;50.81
70555;BME280;58104;52.744;15.242;2023-01-13T06:29:06;99738.40;;;19.53;50.67
70555;BME280;58104;52.744;15.242;2023-01-13T06:31:32;99743.53;;;19.50;50.47
70555;BME280;58104;52.744;15.242;2023-01-13T06:34:00;99744.55;;;19.38;50.67
70555;BME280;58104;52.744;15.242;2023-01-13T06:36:30;99746.86;;;19.45;50.58
70555;BME280;58104;52.744;15.242;2023-01-13T06:38:50;99750.04;;;19.50;50.59
70555;BME280;58104;52.744;15.242;2023-01-13T06:41:13;99752.20;;;19.40;50.40
70555;BME280;58104;52.744;15.242;2023-01-13T06:43:39;99752.24;;;19.41;50.34
70555;BME280;58104;52.744;15.242;2023-01-13T06:46:04;99749.18;;;19.41;50.24
70555;BME280;58104;52.744;15.242;2023-01-13T06:48:31;99755.18;;;19.32;50.35
70555;BME280;58104;52.744;15.242;2023-01-13T06:50:54;99750.89;;;19.34;50.25
70555;BME280;58104;52.744;15.242;2023-01-13T06:53:20;99751.26;;;19.33;50.14
70555;BME280;58104;52.744;15.242;2023-01-13T06:55:46;99756.75;;;19.29;50.11
70555;BME280;58104;52.744;15.242;2023-01-13T06:58:11;99757.05;;;19.28;50.01
70555;BME280;58104;52.744;15.242;2023-01-13T07:00:36;99766.41;;;19.24;50.05
70555;BME280;58104;52.744;15.242;2023-01-13T07:03:06;99767.03;;;19.28;49.97
70555;BME280;58104;52.744;15.242;2023-01-13T07:05:27;99767.12;;;19.31;49.84
70555;BME280;58104;52.744;15.242;2023-01-13T07:07:52;99767.44;;;19.38;49.68
70555;BME280;58104;52.744;15.242;2023-01-13T07:10:18;99769.52;;;19.42;49.63
70555;BME280;58104;52.744;15.242;2023-01-13T07:12:43;99768.54;;;19.37;49.73
70555;BME280;58104;52.744;15.242;2023-01-13T07:15:09;99776.28;;;19.34;49.81
70555;BME280;58104;52.744;15.242;2023-01-13T07:17:34;99774.38;;;19.43;49.72
70555;BME280;58104;52.744;15.242;2023-01-13T07:19:59;99776.78;;;19.39;49.76
70555;BME280;58104;52.744;15.242;2023-01-13T07:22:25;99775.15;;;19.42;50.37
70555;BME280;58104;52.744;15.242;2023-01-13T07:24:50;99775.49;;;19.44;50.11
70555;BME280;58104;52.744;15.242;2023-01-13T07:27:15;99770.08;;;19.54;50.03
70555;BME280;58104;52.744;15.242;2023-01-13T07:29:41;99769.86;;;19.46;49.97
70555;BME280;58104;52.744;15.242;2023-01-13T07:32:06;99777.21;;;19.45;49.94
70555;BME280;58104;52.744;15.242;2023-01-13T07:34:31;99775.39;;;19.50;49.87
70555;BME280;58104;52.744;15.242;2023-01-13T07:36:57;99777.62;;;19.23;50.01
70555;BME280;58104;52.744;15.242;2023-01-13T07:39:22;99779.08;;;19.32;49.91
70555;BME280;58104;52.744;15.242;2023-01-13T07:41:48;99777.31;;;19.34;49.82
70555;BME280;58104;52.744;15.242;2023-01-13T07:44:13;99780.15;;;19.40;49.58
70555;BME280;58104;52.744;15.242;2023-01-13T07:46:39;99784.66;;;19.35;49.46
70555;BME280;58104;52.744;15.242;2023-01-13T07:49:05;99783.74;;;19.48;49.44
70555;BME280;58104;52.744;15.242;2023-01-13T07:51:29;99779.59;;;19.37;49.46
70555;BME280;58104;52.744;15.242;2023-01-13T07:53:55;99780.46;;;19.38;49.38
70555;BME280;58104;52.744;15.242;2023-01-13T07:56:20;99787.17;;;19.32;49.43
70555;BME280;58104;52.744;15.242;2023-01-13T07:58:45;99790.04;;;19.35;49.36
70555;BME280;58104;52.744;15.242;2023-01-13T08:01:12;99792.59;;;19.35;49.09
70555;BME280;58104;52.744;15.242;2023-01-13T08:03:36;99795.24;;;19.48;48.94
70555;BME280;58104;52.744;15.242;2023-01-13T08:06:02;99798.51;;;19.53;48.88
70555;BME280;58104;52.744;15.242;2023-01-13T08:08:27;99802.23;;;19.60;49.19
70555;BME280;58104;52.744;15.242;2023-01-13T08:10:52;99801.51;;;19.58;49.00
70555;BME280;58104;52.744;15.242;2023-01-13T08:13:18;99801.23;;;19.60;48.94
70555;BME280;58104;52.744;15.242;2023-01-13T08:15:44;99802.85;;;19.59;48.90
70555;BME280;58104;52.744;15.242;2023-01-13T08:18:09;99802.77;;;19.51;48.81
70555;BME280;58104;52.744;15.242;2023-01-13T08:23:00;99797.53;;;19.59;48.76
70555;BME280;58104;52.744;15.242;2023-01-13T08:25:26;99799.95;;;19.52;48.92
70555;BME280;58104;52.744;15.242;2023-01-13T08:27:50;99803.37;;;19.51;48.82
70555;BME280;58104;52.744;15.242;2023-01-13T08:30:16;99805.23;;;19.71;48.56
70555;BME280;58104;52.744;15.242;2023-01-13T08:32:42;99804.64;;;19.67;49.15
70555;BME280;58104;52.744;15.242;2023-01-13T08:35:07;99804.04;;;19.53;49.20
70555;BME280;58104;52.744;15.242;2023-01-13T08:37:32;99807.30;;;19.60;49.22
70555;BME280;58104;52.744;15.242;2023-01-13T08:39:58;99807.97;;;19.59;49.20
70555;BME280;58104;52.744;15.242;2023-01-13T08:42:23;99805.78;;;19.59;49.64
70555;BME280;58104;52.744;15.242;2023-01-13T08:44:48;99807.75;;;19.63;49.14
70555;BME280;58104;52.744;15.242;2023-01-13T08:47:13;99812.03;;;19.72;48.70
70555;BME280;58104;52.744;15.242;2023-01-13T08:49:39;99817.88;;;19.65;48.08
70555;BME280;58104;52.744;15.242;2023-01-13T08:54:30;99827.01;;;19.77;46.75
70555;BME280;58104;52.744;15.242;2023-01-13T08:56:55;99822.36;;;19.89;46.74
70555;BME280;58104;52.744;15.242;2023-01-13T08:59:20;99822.23;;;19.77;45.77
70555;BME280;58104;52.744;15.242;2023-01-13T09:01:46;99816.87;;;19.88;45.09
70555;BME280;58104;52.744;15.242;2023-01-13T09:04:15;99801.76;;;19.61;43.23
70555;BME280;58104;52.744;15.242;2023-01-13T09:06:36;99800.89;;;19.19;44.36
70555;BME280;58104;52.744;15.242;2023-01-13T09:09:02;99804.51;;;19.10;44.60
70555;BME280;58104;52.744;15.242;2023-01-13T09:11:31;99804.19;;;18.94;44.17
70555;BME280;58104;52.744;15.242;2023-01-13T09:13:53;99823.19;;;19.00;43.73
70555;BME280;58104;52.744;15.242;2023-01-13T09:16:18;99819.00;;;19.21;43.37
70555;BME280;58104;52.744;15.242;2023-01-13T09:18:44;99814.30;;;19.34;44.67
70555;BME280;58104;52.744;15.242;2023-01-13T09:21:10;99823.28;;;19.26;45.23
70555;BME280;58104;52.744;15.242;2023-01-13T09:23:34;99828.14;;;19.24;45.77
70555;BME280;58104;52.744;15.242;2023-01-13T09:26:00;99831.43;;;19.53;45.33
70555;BME280;58104;52.744;15.242;2023-01-13T09:28:25;99832.22;;;19.45;45.51
70555;BME280;58104;52.744;15.242;2023-01-13T09:30:51;99830.59;;;19.80;45.05
70555;BME280;58104;52.744;15.242;2023-01-13T09:33:16;99826.79;;;19.86;44.74
70555;BME280;58104;52.744;15.242;2023-01-13T09:35:41;99828.73;;;19.91;44.93
70555;BME280;58104;52.744;15.242;2023-01-13T09:38:07;99827.55;;;20.10;44.39
70555;BME280;58104;52.744;15.242;2023-01-13T09:40:32;99833.70;;;20.16;44.67
70555;BME280;58104;52.744;15.242;2023-01-13T09:43:02;99830.25;;;20.22;44.57
70555;BME280;58104;52.744;15.242;2023-01-13T09:45:26;99825.89;;;20.12;44.46
70555;BME280;58104;52.744;15.242;2023-01-13T09:47:53;99830.60;;;20.20;44.56
70555;BME280;58104;52.744;15.242;2023-01-13T09:50:23;99823.00;;;20.20;44.80
70555;BME280;58104;52.744;15.242;2023-01-13T09:52:41;99827.32;;;19.86;44.98
70555;BME280;58104;52.744;15.242;2023-01-13T09:55:09;99825.68;;;19.72;44.69
70555;BME280;58104;52.744;15.242;2023-01-13T09:57:35;99812.06;;;19.84;44.79
70555;BME280;58104;52.744;15.242;2023-01-13T09:59:58;99792.89;;;19.70;44.84
70555;BME280;58104;52.744;15.242;2023-01-13T10:02:30;99793.65;;;19.70;44.76
70555;BME280;58104;52.744;15.242;2023-01-13T10:07:13;99804.85;;;19.81;44.81
70555;BME280;58104;52.744;15.242;2023-01-13T10:09:43;99784.01;;;19.69;44.70
70555;BME280;58104;52.744;15.242;2023-01-13T10:12:09;99809.00;;;19.71;44.14
70555;BME280;58104;52.744;15.242;2023-01-13T10:14:36;99816.02;;;19.75;43.90
70555;BME280;58104;52.744;15.242;2023-01-13T10:17:01;99814.03;;;19.61;44.01
70555;BME280;58104;52.744;15.242;2023-01-13T10:19:23;99806.81;;;19.61;44.04
70555;BME280;58104;52.744;15.242;2023-01-13T10:21:58;99812.66;;;19.68;43.98
70555;BME280;58104;52.744;15.242;2023-01-13T10:24:15;99820.86;;;19.55;44.62
70555;BME280;58104;52.744;15.242;2023-01-13T10:26:44;99812.33;;;19.53;44.62
70555;BME280;58104;52.744;15.242;2023-01-13T10:29:01;99809.19;;;19.64;44.64
70555;BME280;58104;52.744;15.242;2023-01-13T10:31:26;99802.02;;;19.63;44.90
70555;BME280;58104;52.744;15.242;2023-01-13T10:33:57;99786.86;;;19.65;44.84
70555;BME280;58104;52.744;15.242;2023-01-13T10:36:18;99781.93;;;19.56;45.19
70555;BME280;58104;52.744;15.242;2023-01-13T10:38:44;99775.44;;;19.59;45.34
70555;BME280;58104;52.744;15.242;2023-01-13T10:41:16;99768.14;;;19.57;45.41
70555;BME280;58104;52.744;15.242;2023-01-13T10:43:33;99755.61;;;19.57;46.00
70555;BME280;58104;52.744;15.242;2023-01-13T10:46:02;99762.25;;;19.77;45.69
70555;BME280;58104;52.744;15.242;2023-01-13T10:50:49;99745.17;;;19.30;46.73
70555;BME280;58104;52.744;15.242;2023-01-13T10:53:16;99735.29;;;19.75;46.03
70555;BME280;58104;52.744;15.242;2023-01-13T10:55:40;99728.17;;;19.96;45.86
70555;BME280;58104;52.744;15.242;2023-01-13T10:58:11;99744.26;;;19.85;46.22
70555;BME280;58104;52.744;15.242;2023-01-13T11:00:32;99733.36;;;20.00;45.97
70555;BME280;58104;52.744;15.242;2023-01-13T11:03:08;99725.50;;;20.09;46.08
70555;BME280;58104;52.744;15.242;2023-01-13T11:05:23;99709.05;;;20.19;45.71
70555;BME280;58104;52.744;15.242;2023-01-13T11:07:48;99726.87;;;20.25;45.58
70555;BME280;58104;52.744;15.242;2023-01-13T11:10:18;99745.59;;;20.16;45.80
70555;BME280;58104;52.744;15.242;2023-01-13T11:12:44;99746.90;;;20.15;45.71
70555;BME280;58104;52.744;15.242;2023-01-13T11:15:08;99757.52;;;20.16;45.87
70555;BME280;58104;52.744;15.242;2023-01-13T11:17:34;99761.31;;;20.19;45.97
70555;BME280;58104;52.744;15.242;2023-01-13T11:19:58;99764.24;;;20.24;45.78
70555;BME280;58104;52.744;15.242;2023-01-13T11:22:23;99775.36;;;20.26;45.85
70555;BME280;58104;52.744;15.242;2023-01-13T11:24:47;99774.57;;;20.20;46.02
70555;BME280;58104;52.744;15.242;2023-01-13T11:27:14;99779.55;;;20.27;45.96
70555;BME280;58104;52.744;15.242;2023-01-13T11:29:40;99780.82;;;20.28;45.98
70555;BME280;58104;52.744;15.242;2023-01-13T11:32:08;99770.51;;;20.29;46.01
70555;BME280;58104;52.744;15.242;2023-01-13T11:34:29;99760.52;;;20.35;45.86
70555;BME280;58104;52.744;15.242;2023-01-13T11:36:53;99750.84;;;20.36;45.95
70555;BME280;58104;52.744;15.242;2023-01-13T11:39:22;99777.41;;;20.27;46.11
70555;BME280;58104;52.744;15.242;2023-01-13T11:41:43;99756.20;;;20.37;46.10
70555;BME280;58104;52.744;15.242;2023-01-13T11:44:15;99764.09;;;20.37;46.02
70555;BME280;58104;52.744;15.242;2023-01-13T11:46:32;99771.64;;;20.50;45.89
70555;BME280;58104;52.744;15.242;2023-01-13T11:48:59;99766.43;;;20.43;45.04
70555;BME280;58104;52.744;15.242;2023-01-13T11:51:31;99775.28;;;20.37;45.30
70555;BME280;58104;52.744;15.242;2023-01-13T11:53:59;99762.25;;;20.23;44.88
70555;BME280;58104;52.744;15.242;2023-01-13T11:56:29;99760.34;;;19.83;42.92
70555;BME280;58104;52.744;15.242;2023-01-13T11:58:54;99766.01;;;20.10;43.87
70555;BME280;58104;52.744;15.242;2023-01-13T12:01:15;99781.38;;;20.01;42.45
70555;BME280;58104;52.744;15.242;2023-01-13T12:03:34;99783.61;;;19.91;42.21
70555;BME280;58104;52.744;15.242;2023-01-13T12:06:08;99787.85;;;19.61;39.97
70555;BME280;58104;52.744;15.242;2023-01-13T12:08:29;99800.77;;;19.70;42.56
70555;BME280;58104;52.744;15.242;2023-01-13T12:10:56;99795.27;;;19.41;41.87
70555;BME280;58104;52.744;15.242;2023-01-13T12:13:23;99805.29;;;19.50;42.09
70555;BME280;58104;52.744;15.242;2023-01-13T12:15:49;99800.68;;;19.76;41.38
70555;BME280;58104;52.744;15.242;2023-01-13T12:20:34;99791.50;;;19.74;40.89
70555;BME280;58104;52.744;15.242;2023-01-13T12:22:56;99789.88;;;19.70;39.94
70555;BME280;58104;52.744;15.242;2023-01-13T12:25:25;99789.18;;;19.80;39.79
70555;BME280;58104;52.744;15.242;2023-01-13T12:27:48;99786.90;;;19.76;39.61
70555;BME280;58104;52.744;15.242;2023-01-13T12:30:21;99784.76;;;19.71;40.33
70555;BME280;58104;52.744;15.242;2023-01-13T12:32:37;99787.60;;;19.76;40.41
70555;BME280;58104;52.744;15.242;2023-01-13T12:37:30;99801.68;;;19.66;39.45
70555;BME280;58104;52.744;15.242;2023-01-13T12:40:03;99795.13;;;19.73;39.62
70555;BME280;58104;52.744;15.242;2023-01-13T12:42:19;99794.95;;;19.97;38.87
70555;BME280;58104;52.744;15.242;2023-01-13T12:49:33;99799.73;;;19.99;40.89
70555;BME280;58104;52.744;15.242;2023-01-13T12:54:30;99808.18;;;20.14;40.99
70555;BME280;58104;52.744;15.242;2023-01-13T12:56:49;99809.45;;;20.50;41.75
70555;BME280;58104;52.744;15.242;2023-01-13T13:01:40;99809.22;;;20.21;41.98
70555;BME280;58104;52.744;15.242;2023-01-13T13:04:07;99804.17;;;20.51;43.17
70555;BME280;58104;52.744;15.242;2023-01-13T13:06:30;99803.19;;;20.51;41.03
70555;BME280;58104;52.744;15.242;2023-01-13T13:09:00;99813.27;;;20.29;40.73
70555;BME280;58104;52.744;15.242;2023-01-13T13:13:47;99815.76;;;20.33;39.80
70555;BME280;58104;52.744;15.242;2023-01-13T13:18:37;99831.08;;;20.22;40.01
70555;BME280;58104;52.744;15.242;2023-01-13T13:21:05;99828.83;;;20.78;39.81
70555;BME280;58104;52.744;15.242;2023-01-13T13:23:38;99823.07;;;20.98;40.15
70555;BME280;58104;52.744;15.242;2023-01-13T13:25:59;99821.99;;;21.18;40.04
70555;BME280;58104;52.744;15.242;2023-01-13T13:28:20;99829.46;;;21.23;40.21
70555;BME280;58104;52.744;15.242;2023-01-13T13:30:51;99832.67;;;21.23;40.36